Time;durP1;ratioP1;P1;durP2;ratioP2;P2;SDS_P1;SDS_P2;PMS_P1;PMS_P2;Temp;Humidity;BMP_temperature;BMP_pressure;BME280_temperature;BME280_humidity;BME280_pressure;Samples;Min_cycle;Max_cycle;Signal;HPM_P1;HPM_P2
2023/02/15 00:01:48;;;;;;;;;;;;;;;;;;5085179;28;19920;-78
2023/02/15 00:04:13;;;;;;;;;;;;;;;;;;5085052;28;19919;-78
2023/02/15 00:06:38;;;;;;;;;;;;;;;;;;5101306;28;19931;-78
2023/02/15 00:09:04;;;;;;;;;;;;;;;;;;5078457;28;19920;-79
2023/02/15 00:11:43;;;;;;;;;;;;;;;;;;5092537;28;19916;-78
2023/02/15 00:14:08;;;;;;;;;;;;;;;;;;5090152;28;19934;-78
2023/02/15 00:16:33;;;;;;;;;;;;;;;;;;5096743;28;19912;-79
2023/02/15 00:19:01;;;;;;;;;;;;;;;;;;5088272;28;20025;-78
2023/02/15 00:21:26;;;;;;;;;;;;;;;;;;5083719;28;19959;-78
2023/02/15 00:23:51;;;;;;;;;;;;;;;;;;5085302;28;19977;-78
2023/02/15 00:26:16;;;;;;;;;;;;;;;;;;5080037;28;20367;-80
2023/02/15 00:28:42;;;;;;;;;;;;;;;;;;5081106;28;19935;-78
2023/02/15 00:31:07;;;;;;;;;;;;;;;;;;5089879;28;19991;-77
2023/02/15 00:33:32;;;;;;;;;;;;;;;;;;5086941;28;19913;-79
2023/02/15 00:35:57;;;;;;;;;;;;;;;;;;5086477;28;20350;-79
2023/02/15 00:38:22;;;;;;;;;;;;;;;;;;5103739;28;20345;-78
2023/02/15 00:40:47;;;;;;;;;;;;;;;;;;5097322;28;19955;-79
2023/02/15 00:43:12;;;;;;;;;;;;;;;;;;5102786;28;19911;-78
2023/02/15 00:45:38;;;;;;;;;;;;;;;;;;5097141;28;19922;-79
2023/02/15 00:48:03;;;;;;;;;;;;;;;;;;5077788;28;19913;-79
2023/02/15 00:50:28;;;;;;;;;;;;;;;;;;5096918;28;19985;-79
2023/02/15 00:52:53;;;;;;;;;;;;;;;;;;5085358;28;20264;-79
2023/02/15 00:55:18;;;;;;;;;;;;;;;;;;5091947;28;19958;-78
2023/02/15 00:57:43;;;;;;;;;;;;;;;;;;5099888;28;20308;-79
2023/02/15 01:00:08;;;;;;;;;;;;;;;;;;5096477;28;19912;-79
2023/02/15 01:02:33;;;;;;;;;;;;;;;;;;5086779;28;19912;-81
2023/02/15 01:04:59;;;;;;;;;;;;;;;;;;5106419;28;19951;-80
2023/02/15 01:07:24;;;;;;;;;;;;;;;;;;5080529;28;19916;-80
2023/02/15 01:09:49;;;;;;;;;;;;;;;;;;5077951;28;19920;-80
2023/02/15 01:12:15;;;;;;;;;;;;;;;;;;5083361;28;19975;-81
2023/02/15 01:14:40;;;;;;;;;;;;;;;;;;5105014;28;19922;-80
2023/02/15 01:17:05;;;;;;;;;;;;;;;;;;5072387;28;20016;-80
2023/02/15 01:19:30;;;;;;;;;;;;;;;;;;5078583;28;19916;-80
2023/02/15 01:21:55;;;;;;;;;;;;;;;;;;5095837;28;19912;-80
2023/02/15 01:24:20;;;;;;;;;;;;;;;;;;5085116;28;19913;-81
2023/02/15 01:26:45;;;;;;;;;;;;;;;;;;5093399;28;20423;-80
2023/02/15 01:29:10;;;;;;;;;;;;;;;;;;5088782;28;19927;-80
2023/02/15 01:31:38;;;;;;;;;;;;;;;;;;5077145;28;19915;-80
2023/02/15 01:34:03;;;;;;;;;;;;;;;;;;5101192;28;20621;-80
2023/02/15 01:36:29;;;;;;;;;;;;;;;;;;5092864;28;19916;-80
2023/02/15 01:38:54;;;;;;;;;;;;;;;;;;5086602;28;19911;-80
2023/02/15 01:41:26;;;;;;;;;;;;;;;;;;5097637;28;20392;-80
2023/02/15 01:43:52;;;;;;;;;;;;;;;;;;5094872;28;20374;-80
2023/02/15 01:46:17;;;;;;;;;;;;;;;;;;5109421;28;19931;-80
2023/02/15 01:48:42;;;;;;;;;;;;;;;;;;5076083;28;19913;-80
2023/02/15 01:51:07;;;;;;;;;;;;;;;;;;5092128;28;19959;-80
2023/02/15 01:53:32;;;;;;;;;;;;;;;;;;5075527;28;19913;-80
2023/02/15 01:55:57;;;;;;;;;;;;;;;;;;5092020;28;19915;-79
2023/02/15 01:58:22;;;;;;;;;;;;;;;;;;5082606;28;19913;-78
2023/02/15 02:00:48;;;;;;;;;;;;;;;;;;5097229;28;19915;-78
2023/02/15 02:03:13;;;;;;;;;;;;;;;;;;5089977;28;19961;-77
2023/02/15 02:05:38;;;;;;;;;;;;;;;;;;5110954;28;19912;-78
2023/02/15 02:08:03;;;;;;;;;;;;;;;;;;5086406;28;20291;-78
2023/02/15 02:10:28;;;;;;;;;;;;;;;;;;5094799;28;20006;-78
2023/02/15 02:12:53;;;;;;;;;;;;;;;;;;5086003;28;19919;-78
2023/02/15 02:15:18;;;;;;;;;;;;;;;;;;5097985;28;20265;-77
2023/02/15 02:17:44;;;;;;;;;;;;;;;;;;5097495;28;20370;-77
2023/02/15 02:20:09;;;;;;;;;;;;;;;;;;5094465;28;19935;-77
2023/02/15 02:22:34;;;;;;;;;;;;;;;;;;5093367;28;20039;-78
2023/02/15 02:24:59;;;;;;;;;;;;;;;;;;5075581;28;19951;-78
2023/02/15 02:27:24;;;;;;;;;;;;;;;;;;5088993;28;19919;-78
2023/02/15 02:29:49;;;;;;;;;;;;;;;;;;5075823;28;19941;-78
2023/02/15 02:32:14;;;;;;;;;;;;;;;;;;5088927;28;19920;-78
2023/02/15 02:34:40;;;;;;;;;;;;;;;;;;5102960;28;20335;-78
2023/02/15 02:37:05;;;;;;;;;;;;;;;;;;5100128;28;19912;-78
2023/02/15 02:39:30;;;;;;;;;;;;;;;;;;5086328;28;19923;-78
2023/02/15 02:41:55;;;;;;;;;;;;;;;;;;5081991;28;19938;-78
2023/02/15 02:44:20;;;;;;;;;;;;;;;;;;5091688;28;19997;-79
2023/02/15 02:46:45;;;;;;;;;;;;;;;;;;5087158;28;20282;-79
2023/02/15 02:49:10;;;;;;;;;;;;;;;;;;5070363;28;19924;-79
2023/02/15 02:51:35;;;;;;;;;;;;;;;;;;5093578;28;19964;-79
2023/02/15 02:54:01;;;;;;;;;;;;;;;;;;5094194;28;19965;-79
2023/02/15 02:56:26;;;;;;;;;;;;;;;;;;5086401;28;19912;-79
2023/02/15 02:58:51;;;;;;;;;;;;;;;;;;5086318;28;20382;-79
2023/02/15 03:01:16;;;;;;;;;;;;;;;;;;5075215;28;19947;-79
2023/02/15 03:03:41;;;;;;;;;;;;;;;;;;5081411;28;20019;-79
2023/02/15 03:06:06;;;;;;;;;;;;;;;;;;5094418;28;20606;-79
2023/02/15 03:08:31;;;;;;;;;;;;;;;;;;5090586;28;21378;-79
2023/02/15 03:10:56;;;;;;;;;;;;;;;;;;5096281;28;20334;-79
2023/02/15 03:13:22;;;;;;;;;;;;;;;;;;5108326;28;19919;-79
2023/02/15 03:16:32;;;;;;;;;;;;;;;;;;5105552;28;20312;-78
2023/02/15 03:18:32;;;;;;;;;;;;;;;;;;5079241;28;20282;-78
2023/02/15 03:20:57;;;;;;;;;;;;;;;;;;5101730;28;19919;-78
2023/02/15 03:23:22;;;;;;;;;;;;;;;;;;5084987;28;19972;-79
2023/02/15 03:25:48;;;;;;;;;;;;;;;;;;5086088;28;19916;-79
2023/02/15 03:28:13;;;;;;;;;;;;;;;;;;5094861;28;20034;-79
2023/02/15 03:30:38;;;;;;;;;;;;;;;;;;5103695;28;20397;-79
2023/02/15 03:33:03;;;;;;;;;;;;;;;;;;5097900;28;19912;-79
2023/02/15 03:35:28;;;;;;;;;;;;;;;;;;5080676;28;19912;-79
2023/02/15 03:37:53;;;;;;;;;;;;;;;;;;5082428;28;20431;-79
2023/02/15 03:43:02;;;;;;;;;;;;;;;;;;5075954;28;19919;-79
2023/02/15 03:45:27;;;;;;;;;;;;;;;;;;5090661;28;19916;-79
2023/02/15 03:47:52;;;;;;;;;;;;;;;;;;5095401;28;19959;-80
2023/02/15 03:53:01;;;;;;;;;;;;;;;;;;5090502;28;19966;-81
2023/02/15 03:55:27;;;;;;;;;;;;;;;;;;5093579;28;19916;-82
2023/02/15 04:03:20;;;;;;;;;;;;;;;;;;5097608;28;20011;-80
2023/02/15 04:05:45;;;;;;;;;;;;;;;;;;5092436;28;20007;-80
2023/02/15 04:08:10;;;;;;;;;;;;;;;;;;5106195;28;19922;-80
2023/02/15 04:10:55;;;;;;;;;;;;;;;;;;5094363;28;20324;-80
2023/02/15 04:13:20;;;;;;;;;;;;;;;;;;5083737;28;19916;-80
2023/02/15 04:16:04;;;;;;;;;;;;;;;;;;5107206;28;19943;-80
2023/02/15 04:26:40;;;;;;;;;;;;;;;;;;5091151;28;19923;-80
2023/02/15 04:29:05;;;;;;;;;;;;;;;;;;5086616;28;19916;-80
2023/02/15 04:31:30;;;;;;;;;;;;;;;;;;5100156;28;19916;-80
2023/02/15 04:33:55;;;;;;;;;;;;;;;;;;5088791;28;20018;-79
2023/02/15 04:36:21;;;;;;;;;;;;;;;;;;5088822;28;19912;-79
2023/02/15 04:38:46;;;;;;;;;;;;;;;;;;5099337;28;20381;-79
2023/02/15 04:41:12;;;;;;;;;;;;;;;;;;5106673;28;19923;-78
2023/02/15 04:43:37;;;;;;;;;;;;;;;;;;5088740;28;19912;-78
2023/02/15 04:46:03;;;;;;;;;;;;;;;;;;5103873;28;19919;-79
2023/02/15 04:48:28;;;;;;;;;;;;;;;;;;5079276;28;20370;-78
2023/02/15 04:50:53;;;;;;;;;;;;;;;;;;5090308;28;19916;-79
2023/02/15 04:53:18;;;;;;;;;;;;;;;;;;5084763;28;19912;-79
2023/02/15 04:55:43;;;;;;;;;;;;;;;;;;5086961;28;19919;-79
2023/02/15 04:58:08;;;;;;;;;;;;;;;;;;5102401;28;19913;-79
2023/02/15 05:00:33;;;;;;;;;;;;;;;;;;5079468;28;19992;-79
2023/02/15 05:02:58;;;;;;;;;;;;;;;;;;5091443;28;19913;-79
2023/02/15 05:05:23;;;;;;;;;;;;;;;;;;5102230;28;20361;-79
2023/02/15 05:07:49;;;;;;;;;;;;;;;;;;5102028;28;19912;-79
2023/02/15 05:10:14;;;;;;;;;;;;;;;;;;5088256;28;19916;-79
2023/02/15 05:12:39;;;;;;;;;;;;;;;;;;5096985;28;19916;-79
2023/02/15 05:15:04;;;;;;;;;;;;;;;;;;5089211;28;20352;-80
2023/02/15 05:17:29;;;;;;;;;;;;;;;;;;5111089;28;20015;-81
2023/02/15 05:19:54;;;;;;;;;;;;;;;;;;5097787;28;19918;-79
2023/02/15 05:22:20;;;;;;;;;;;;;;;;;;5087333;28;20267;-79
2023/02/15 05:30:14;;;;;;;;;;;;;;;;;;5097078;28;19923;-79
2023/02/15 05:32:39;;;;;;;;;;;;;;;;;;5077616;28;19912;-80
2023/02/15 05:35:04;;;;;;;;;;;;;;;;;;5094129;28;19912;-80
2023/02/15 05:37:29;;;;;;;;;;;;;;;;;;5077391;28;19935;-81
2023/02/15 05:39:54;;;;;;;;;;;;;;;;;;5104777;28;19919;-81
2023/02/15 05:42:19;;;;;;;;;;;;;;;;;;5084265;28;19916;-78
2023/02/15 05:44:44;;;;;;;;;;;;;;;;;;5084769;28;19911;-78
2023/02/15 05:47:10;;;;;;;;;;;;;;;;;;5080682;28;19920;-78
2023/02/15 05:49:35;;;;;;;;;;;;;;;;;;5107131;28;19920;-79
2023/02/15 05:52:02;;;;;;;;;;;;;;;;;;5076443;28;20386;-79
2023/02/15 05:54:27;;;;;;;;;;;;;;;;;;5080830;28;21437;-79
2023/02/15 05:56:52;;;;;;;;;;;;;;;;;;5091964;28;19912;-79
2023/02/15 05:59:18;;;;;;;;;;;;;;;;;;5102179;28;19912;-78
2023/02/15 06:01:43;;;;;;;;;;;;;;;;;;5078942;28;20350;-79
2023/02/15 06:04:08;;;;;;;;;;;;;;;;;;5086780;28;20389;-78
2023/02/15 06:06:34;;;;;;;;;;;;;;;;;;5089774;28;20007;-78
2023/02/15 06:08:59;;;;;;;;;;;;;;;;;;5092463;28;19919;-79
2023/02/15 06:11:24;;;;;;;;;;;;;;;;;;5082587;28;19918;-80
2023/02/15 06:13:49;;;;;;;;;;;;;;;;;;5089627;28;19959;-81
2023/02/15 06:16:15;;;;;;;;;;;;;;;;;;5100293;28;19912;-79
2023/02/15 06:18:40;;;;;;;;;;;;;;;;;;5080265;28;19942;-79
2023/02/15 06:21:05;;;;;;;;;;;;;;;;;;5077505;28;20416;-79
2023/02/15 06:23:31;;;;;;;;;;;;;;;;;;5075425;28;19935;-78
2023/02/15 06:25:56;;;;;;;;;;;;;;;;;;5078265;28;19920;-79
2023/02/15 06:28:21;;;;;;;;;;;;;;;;;;5079194;28;19952;-79
2023/02/15 06:30:46;;;;;;;;;;;;;;;;;;5088715;28;20367;-79
2023/02/15 06:33:11;;;;;;;;;;;;;;;;;;5079472;28;19919;-79
2023/02/15 06:35:46;;;;;;;;;;;;;;;;;;;;;
2023/02/15 06:38:12;;;;;;;;;;;;;;;;;;5084792;28;19920;-81
2023/02/15 06:40:37;;;;;;;;;;;;;;;;;;5074843;28;19918;-79
2023/02/15 06:43:02;;;;;;;;;;;;;;;;;;5071129;28;19927;-79
2023/02/15 06:45:27;;;;;;;;;;;;;;;;;;5071144;28;19927;-79
2023/02/15 06:47:52;;;;;;;;;;;;;;;;;;5077377;28;19912;-78
2023/02/15 06:50:17;;;;;;;;;;;;;;;;;;5073935;28;19920;-81
2023/02/15 06:52:43;;;;;;;;;;;;;;;;;;5073143;28;19919;-79
2023/02/15 06:55:11;;;;;;;;;;;;;;;;;;5077716;28;19913;-84
2023/02/15 06:57:36;;;;;;;;;;;;;;;;;;5074919;28;19923;-81
2023/02/15 07:00:01;;;;;;;;;;;;;;;;;;5074340;28;19912;-80
2023/02/15 07:02:26;;;;;;;;;;;;;;;;;;5072777;28;19917;-82
2023/02/15 07:04:51;;;;;;;;;;;;;;;;;;5081289;28;19912;-78
2023/02/15 07:07:16;;;;;;;;;;;;;;;;;;5084200;28;19912;-78
2023/02/15 07:09:42;;;;;;;;;;;;;;;;;;5074988;28;19917;-78
2023/02/15 07:14:51;;;;;;;;;;;;;;;;;;5078626;28;20255;-78
2023/02/15 07:17:17;;;;;;;;;;;;;;;;;;5082681;28;19911;-79
2023/02/15 07:19:42;;;;;;;;;;;;;;;;;;5088859;28;20278;-80
2023/02/15 07:22:07;;;;;;;;;;;;;;;;;;5083087;28;19912;-78
2023/02/15 07:24:32;;;;;;;;;;;;;;;;;;5086559;28;20385;-78
2023/02/15 07:26:57;;;;;;;;;;;;;;;;;;5073376;28;19916;-78
2023/02/15 07:29:23;;;;;;;;;;;;;;;;;;5084368;28;19924;-77
2023/02/15 07:31:48;;;;;;;;;;;;;;;;;;5092790;28;19916;-77
2023/02/15 07:34:13;;;;;;;;;;;;;;;;;;5091924;28;19958;-77
2023/02/15 07:36:38;;;;;;;;;;;;;;;;;;5089725;28;19989;-77
2023/02/15 07:39:03;;;;;;;;;;;;;;;;;;5088840;28;19991;-78
2023/02/15 07:41:28;;;;;;;;;;;;;;;;;;5098061;28;20413;-77
2023/02/15 07:43:54;;;;;;;;;;;;;;;;;;5102475;28;19918;-77
2023/02/15 07:46:20;;;;;;;;;;;;;;;;;;5109705;28;19955;-78
2023/02/15 07:48:45;;;;;;;;;;;;;;;;;;5091675;28;19995;-78
2023/02/15 07:51:10;;;;;;;;;;;;;;;;;;5100505;28;20344;-78
2023/02/15 07:53:36;;;;;;;;;;;;;;;;;;5110718;28;20358;-78
2023/02/15 07:56:01;;;;;;;;;;;;;;;;;;5093303;28;20434;-77
2023/02/15 07:58:50;;;;;;;;;;;;;;;;;;5092122;28;19965;-78
2023/02/15 08:01:11;;;;;;;;;;;;;;;;;;5092655;28;19916;-78
2023/02/15 08:03:36;;;;;;;;;;;;;;;;;;5092641;28;20003;-79
2023/02/15 08:06:01;;;;;;;;;;;;;;;;;;5080424;28;20381;-78
2023/02/15 08:08:29;;;;;;;;;;;;;;;;;;5087155;28;19915;-78
2023/02/15 08:13:53;;;;;;;;;;;;;;;;;;5110176;28;19980;-79
2023/02/15 08:16:18;;;;;;;;;;;;;;;;;;5100236;28;20286;-80
2023/02/15 08:18:43;;;;;;;;;;;;;;;;;;5090522;28;19919;-81
2023/02/15 08:21:08;;;;;;;;;;;;;;;;;;5105638;28;20058;-81
2023/02/15 08:23:39;;;;;;;;;;;;;;;;;;5101109;28;19975;-78
2023/02/15 08:28:51;;;;;;;;;;;;;;;;;;5107526;28;20331;-79
2023/02/15 08:39:49;;;;;;;;;;;;;;;;;;5009405;28;19924;-82
2023/02/15 08:42:14;;;;;;;;;;;;;;;;;;5009172;28;19913;-81
2023/02/15 08:47:27;;;;;;;;;;;;;;;;;;4953603;28;19926;-79
2023/02/15 08:49:52;;;;;;;;;;;;;;;;;;4947781;29;20326;-79
2023/02/15 08:52:17;;;;;;;;;;;;;;;;;;4936233;29;19915;-79
2023/02/15 08:54:42;;;;;;;;;;;;;;;;;;4949605;29;19963;-78
2023/02/15 08:57:07;;;;;;;;;;;;;;;;;;4945726;28;19995;-81
2023/02/15 08:59:33;;;;;;;;;;;;;;;;;;4936211;29;20017;-82
2023/02/15 09:01:59;;;;;;;;;;;;;;;;;;4949192;28;19914;-81
2023/02/15 09:04:27;;;;;;;;;;;;;;;;;;4934335;28;19921;-80
2023/02/15 09:06:52;;;;;;;;;;;;;;;;;;4951521;28;19915;-76
2023/02/15 09:09:17;;;;;;;;;;;;;;;;;;4955274;28;20036;-81
2023/02/15 09:11:42;;;;;;;;;;;;;;;;;;4918921;29;19915;-76
2023/02/15 09:14:08;;;;;;;;;;;;;;;;;;4944396;28;19914;-75
2023/02/15 09:16:34;;;;;;;;;;;;;;;;;;4960537;28;19969;-78
2023/02/15 09:19:00;;;;;;;;;;;;;;;;;;4949942;28;20355;-81
2023/02/15 09:21:26;;;;;;;;;;;;;;;;;;4961825;28;20377;-77
2023/02/15 09:23:51;;;;;;;;;;;;;;;;;;4978553;28;20329;-78
2023/02/15 09:26:16;;;;;;;;;;;;;;;;;;5065701;28;19975;-79
2023/02/15 09:28:41;;;;;;;;;;;;;;;;;;5060508;28;19916;-79
2023/02/15 09:31:06;;;;;;;;;;;;;;;;;;5055141;28;19916;-79
2023/02/15 09:33:32;;;;;;;;;;;;;;;;;;5051887;28;19913;-78
2023/02/15 09:35:57;;;;;;;;;;;;;;;;;;5050392;28;20391;-80
2023/02/15 09:38:22;;;;;;;;;;;;;;;;;;5061821;28;19913;-78
2023/02/15 09:40:47;;;;;;;;;;;;;;;;;;5046989;28;19987;-81
2023/02/15 09:43:12;;;;;;;;;;;;;;;;;;5049803;28;20375;-84
2023/02/15 09:45:45;;;;;;;;;;;;;;;;;;5053825;28;20367;-82
2023/02/15 09:48:10;;;;;;;;;;;;;;;;;;5099678;28;19928;-81
2023/02/15 09:50:38;;;;;;;;;;;;;;;;;;5092921;28;20287;-85
2023/02/15 09:53:05;;;;;;;;;;;;;;;;;;5086736;28;19912;-80
2023/02/15 09:55:46;;;;;;;;;;;;;;;;;;5095142;28;19948;-85
2023/02/15 10:01:15;;;;;;;;;;;;;;;;;;5026589;28;19913;-83
2023/02/15 10:08:59;;;;;;;;;;;;;;;;;;5158021;22;19925;-83
2023/02/15 10:11:39;;;;;;;;;;;;;;;;;;5042448;28;19924;-85
2023/02/15 10:14:12;;;;;;;;;;;;;;;;;;5055680;28;19919;-84
2023/02/15 10:16:37;;;;;;;;;;;;;;;;;;5054108;28;19913;-85
2023/02/15 10:19:03;;;;;;;;;;;;;;;;;;5057549;28;20434;-84
2023/02/15 10:21:28;;;;;;;;;;;;;;;;;;5057463;28;20007;-83
2023/02/15 10:23:53;;;;;;;;;;;;;;;;;;5057252;28;20381;-84
2023/02/15 10:26:22;;;;;;;;;;;;;;;;;;5055467;28;20367;-81
2023/02/15 10:28:47;;;;;;;;;;;;;;;;;;5064940;28;19920;-82
2023/02/15 10:31:13;;;;;;;;;;;;;;;;;;5055972;28;19916;-84
2023/02/15 10:33:39;;;;;;;;;;;;;;;;;;5055512;28;19920;-83
2023/02/15 10:36:04;;;;;;;;;;;;;;;;;;5057446;28;20015;-81
2023/02/15 10:38:29;;;;;;;;;;;;;;;;;;5061742;28;19916;-80
2023/02/15 10:41:00;;;;;;;;;;;;;;;;;;5045864;28;19916;-86
2023/02/15 10:43:25;;;;;;;;;;;;;;;;;;5051951;28;19920;-84
2023/02/15 10:45:51;;;;;;;;;;;;;;;;;;5058486;28;19913;-83
2023/02/15 10:48:23;;;;;;;;;;;;;;;;;;5048139;28;19939;-85
2023/02/15 10:50:48;;;;;;;;;;;;;;;;;;5048767;28;20400;-83
2023/02/15 10:53:14;;;;;;;;;;;;;;;;;;5061980;28;19924;-82
2023/02/15 10:55:39;;;;;;;;;;;;;;;;;;5053526;28;19935;-84
2023/02/15 10:58:05;;;;;;;;;;;;;;;;;;5057106;28;20303;-82
2023/02/15 11:00:30;;;;;;;;;;;;;;;;;;5050780;28;19919;-82
2023/02/15 11:02:59;;;;;;;;;;;;;;;;;;5042573;28;20174;-83
2023/02/15 11:05:24;;;;;;;;;;;;;;;;;;5053326;28;19951;-82
2023/02/15 11:07:49;;;;;;;;;;;;;;;;;;5040841;28;19963;-83
2023/02/15 11:10:14;;;;;;;;;;;;;;;;;;5044250;28;19988;-83
2023/02/15 11:12:43;;;;;;;;;;;;;;;;;;5049057;28;19924;-91
2023/02/15 11:15:09;;;;;;;;;;;;;;;;;;5061093;28;19917;-85
2023/02/15 11:17:37;;;;;;;;;;;;;;;;;;5053833;28;20360;-86
2023/02/15 11:20:12;;;;;;;;;;;;;;;;;;5051176;28;19912;-82
2023/02/15 11:22:40;;;;;;;;;;;;;;;;;;5048310;28;19917;-84
2023/02/15 11:25:05;;;;;;;;;;;;;;;;;;5071766;28;19917;-85
2023/02/15 11:27:43;;;;;;;;;;;;;;;;;;5051972;28;19917;-86
2023/02/15 11:30:17;;;;;;;;;;;;;;;;;;5050034;28;19923;-82
2023/02/15 11:32:49;;;;;;;;;;;;;;;;;;5051711;28;20320;-82
2023/02/15 11:35:25;;;;;;;;;;;;;;;;;;5053615;28;19920;-89
2023/02/15 11:38:06;;;;;;;;;;;;;;;;;;5068852;28;20366;-86
2023/02/15 11:40:31;;;;;;;;;;;;;;;;;;5049374;28;19925;-85
2023/02/15 11:43:00;;;;;;;;;;;;;;;;;;5052408;28;19913;-89
2023/02/15 11:45:25;;;;;;;;;;;;;;;;;;5052412;28;19920;-84
2023/02/15 11:47:50;;;;;;;;;;;;;;;;;;5053002;28;19913;-83
2023/02/15 11:50:16;;;;;;;;;;;;;;;;;;5054865;28;20439;-90
2023/02/15 11:52:41;;;;;;;;;;;;;;;;;;5059388;28;19913;-85
2023/02/15 11:55:09;;;;;;;;;;;;;;;;;;5054499;28;19925;-85
2023/02/15 12:00:35;;;;;;;;;;;;;;;;;;5047825;28;19971;-87
2023/02/15 12:03:00;;;;;;;;;;;;;;;;;;5054809;28;20019;-86
2023/02/15 12:05:25;;;;;;;;;;;;;;;;;;5050334;28;20008;-82
2023/02/15 12:07:51;;;;;;;;;;;;;;;;;;5047865;28;19921;-81
2023/02/15 12:10:19;;;;;;;;;;;;;;;;;;5043326;28;19950;-84
2023/02/15 12:13:03;;;;;;;;;;;;;;;;;;5049010;28;20211;-85
2023/02/15 12:18:29;;;;;;;;;;;;;;;;;;5054067;28;20073;-88
2023/02/15 12:20:57;;;;;;;;;;;;;;;;;;5050980;28;19967;-84
2023/02/15 12:23:24;;;;;;;;;;;;;;;;;;5038046;28;20033;-85
2023/02/15 12:25:53;;;;;;;;;;;;;;;;;;5063276;28;20058;-84
2023/02/15 12:28:18;;;;;;;;;;;;;;;;;;5053290;28;20395;-87
2023/02/15 12:30:46;;;;;;;;;;;;;;;;;;5054492;28;20464;-88
2023/02/15 12:33:12;;;;;;;;;;;;;;;;;;5058507;28;19917;-85
2023/02/15 12:36:02;;;;;;;;;;;;;;;;;;;;;
2023/02/15 12:38:34;;;;;;;;;;;;;;;;;;5034414;28;20265;-85
2023/02/15 12:41:10;;;;;;;;;;;;;;;;;;5043012;28;19925;-85
2023/02/15 12:46:23;;;;;;;;;;;;;;;;;;5024568;28;20027;-83
2023/02/15 12:49:09;;;;;;;;;;;;;;;;;;5047372;28;19919;-80
2023/02/15 12:51:34;;;;;;;;;;;;;;;;;;5025131;28;19914;-76
2023/02/15 12:54:03;;;;;;;;;;;;;;;;;;5028606;28;19920;-80
2023/02/15 12:56:28;;;;;;;;;;;;;;;;;;5031226;28;20012;-80
2023/02/15 12:58:54;;;;;;;;;;;;;;;;;;5025183;28;20007;-80
2023/02/15 13:01:21;;;;;;;;;;;;;;;;;;5029195;28;19979;-78
2023/02/15 13:03:46;;;;;;;;;;;;;;;;;;5040865;28;20003;-80
2023/02/15 13:06:12;;;;;;;;;;;;;;;;;;5036364;28;19917;-79
2023/02/15 13:11:50;;;;;;;;;;;;;;;;;;5014519;28;20303;-82
2023/02/15 13:16:53;;;;;;;;;;;;;;;;;;5083284;23;20396;-81
2023/02/15 13:19:18;;;;;;;;;;;;;;;;;;5001308;28;20001;-78
2023/02/15 13:21:43;;;;;;;;;;;;;;;;;;4987533;28;20391;-79
2023/02/15 13:24:08;;;;;;;;;;;;;;;;;;4986173;28;19913;-79
2023/02/15 13:29:25;;;;;;;;;;;;;;;;;;4989652;28;19925;-81
2023/02/15 13:31:50;;;;;;;;;;;;;;;;;;4990508;28;19913;-79
2023/02/15 13:34:18;;;;;;;;;;;;;;;;;;4999986;28;20000;-79
2023/02/15 13:36:44;;;;;;;;;;;;;;;;;;5002217;28;20008;-78
2023/02/15 13:39:10;;;;;;;;;;;;;;;;;;5008496;28;20500;-78
2023/02/15 13:41:35;;;;;;;;;;;;;;;;;;4991829;28;19925;-80
2023/02/15 13:44:00;;;;;;;;;;;;;;;;;;5008413;28;19914;-79
2023/02/15 13:46:32;;;;;;;;;;;;;;;;;;5009054;28;19913;-80
2023/02/15 13:48:59;;;;;;;;;;;;;;;;;;4986278;28;19957;-81
2023/02/15 13:51:25;;;;;;;;;;;;;;;;;;5000195;28;19949;-77
2023/02/15 13:53:50;;;;;;;;;;;;;;;;;;5003126;28;20008;-77
2023/02/15 13:56:15;;;;;;;;;;;;;;;;;;4990456;28;19921;-80
2023/02/15 13:58:40;;;;;;;;;;;;;;;;;;4985592;28;19925;-81
2023/02/15 14:01:05;;;;;;;;;;;;;;;;;;5004335;28;19965;-80
2023/02/15 14:03:30;;;;;;;;;;;;;;;;;;4999861;28;19921;-79
2023/02/15 14:06:03;;;;;;;;;;;;;;;;;;4996158;28;19921;-79
2023/02/15 14:08:51;;;;;;;;;;;;;;;;;;5006185;28;19972;-81
2023/02/15 14:11:19;;;;;;;;;;;;;;;;;;5005114;28;20364;-81
2023/02/15 14:13:46;;;;;;;;;;;;;;;;;;5000886;28;19953;-81
2023/02/15 14:16:15;;;;;;;;;;;;;;;;;;4996672;28;19914;-80
2023/02/15 14:18:40;;;;;;;;;;;;;;;;;;5015371;28;20289;-77
2023/02/15 14:21:05;;;;;;;;;;;;;;;;;;5022889;28;19922;-78
2023/02/15 14:23:30;;;;;;;;;;;;;;;;;;5010018;28;19913;-78
2023/02/15 14:25:56;;;;;;;;;;;;;;;;;;5020796;28;19913;-78
2023/02/15 14:28:22;;;;;;;;;;;;;;;;;;5007360;28;19924;-79
2023/02/15 14:30:47;;;;;;;;;;;;;;;;;;5003295;28;20341;-79
2023/02/15 14:33:13;;;;;;;;;;;;;;;;;;5002882;28;19922;-81
2023/02/15 14:35:38;;;;;;;;;;;;;;;;;;5026110;28;20311;-80
2023/02/15 14:38:03;;;;;;;;;;;;;;;;;;5017490;28;19914;-77
2023/02/15 14:43:12;;;;;;;;;;;;;;;;;;5003522;28;19972;-76
2023/02/15 14:45:42;;;;;;;;;;;;;;;;;;5009957;28;20376;-79
2023/02/15 14:48:07;;;;;;;;;;;;;;;;;;5003481;28;20000;-78
2023/02/15 14:50:34;;;;;;;;;;;;;;;;;;5007573;28;20432;-78
2023/02/15 14:52:59;;;;;;;;;;;;;;;;;;5011870;28;20437;-78
2023/02/15 14:55:24;;;;;;;;;;;;;;;;;;5010113;28;20368;-78
2023/02/15 14:57:49;;;;;;;;;;;;;;;;;;5009618;28;21173;-76
2023/02/15 15:00:15;;;;;;;;;;;;;;;;;;5008885;28;20008;-76
2023/02/15 15:02:41;;;;;;;;;;;;;;;;;;5007517;28;19910;-76
2023/02/15 15:05:06;;;;;;;;;;;;;;;;;;5008430;28;20079;-76
2023/02/15 15:07:31;;;;;;;;;;;;;;;;;;5006705;28;19909;-76
2023/02/15 15:09:56;;;;;;;;;;;;;;;;;;5028715;28;19914;-76
2023/02/15 15:12:21;;;;;;;;;;;;;;;;;;5012578;28;20284;-76
2023/02/15 15:14:47;;;;;;;;;;;;;;;;;;5013067;28;20321;-76
2023/02/15 15:17:12;;;;;;;;;;;;;;;;;;5012477;28;20066;-77
2023/02/15 15:19:41;;;;;;;;;;;;;;;;;;5012371;28;19921;-78
2023/02/15 15:22:06;;;;;;;;;;;;;;;;;;5022763;28;19913;-77
2023/02/15 15:24:31;;;;;;;;;;;;;;;;;;5007250;28;19935;-76
2023/02/15 15:26:56;;;;;;;;;;;;;;;;;;5026439;28;19913;-77
2023/02/15 15:29:22;;;;;;;;;;;;;;;;;;5022630;28;20384;-76
2023/02/15 15:31:47;;;;;;;;;;;;;;;;;;5011603;28;19921;-76
2023/02/15 15:34:12;;;;;;;;;;;;;;;;;;5013627;28;20386;-75
2023/02/15 15:36:37;;;;;;;;;;;;;;;;;;5025285;28;20376;-75
2023/02/15 15:39:02;;;;;;;;;;;;;;;;;;5019520;28;19917;-76
2023/02/15 15:41:27;;;;;;;;;;;;;;;;;;5027366;28;19924;-76
2023/02/15 15:43:53;;;;;;;;;;;;;;;;;;5027661;28;19964;-78
2023/02/15 15:46:18;;;;;;;;;;;;;;;;;;5007167;28;19956;-76
2023/02/15 15:48:43;;;;;;;;;;;;;;;;;;5025504;28;19967;-77
2023/02/15 15:51:08;;;;;;;;;;;;;;;;;;5022964;28;19964;-77
2023/02/15 15:53:33;;;;;;;;;;;;;;;;;;5012580;28;20360;-76
2023/02/15 15:55:58;;;;;;;;;;;;;;;;;;5007680;28;19972;-76
2023/02/15 15:58:23;;;;;;;;;;;;;;;;;;5027002;28;20337;-76
2023/02/15 16:00:49;;;;;;;;;;;;;;;;;;5019798;28;20375;-76
2023/02/15 16:03:14;;;;;;;;;;;;;;;;;;5029664;28;19991;-76
2023/02/15 16:05:39;;;;;;;;;;;;;;;;;;5012230;28;19953;-76
2023/02/15 16:08:05;;;;;;;;;;;;;;;;;;5026323;28;20621;-75
2023/02/15 16:10:31;;;;;;;;;;;;;;;;;;5010000;28;20339;-75
2023/02/15 16:12:57;;;;;;;;;;;;;;;;;;5023713;28;19917;-76
2023/02/15 16:15:23;;;;;;;;;;;;;;;;;;5005787;28;19972;-79
2023/02/15 16:17:48;;;;;;;;;;;;;;;;;;5002784;28;19925;-76
2023/02/15 16:20:13;;;;;;;;;;;;;;;;;;5000972;28;19929;-78
2023/02/15 16:22:38;;;;;;;;;;;;;;;;;;5006449;28;19992;-81
2023/02/15 16:25:04;;;;;;;;;;;;;;;;;;5024783;28;19921;-79
2023/02/15 16:27:29;;;;;;;;;;;;;;;;;;5026440;28;19920;-78
2023/02/15 16:29:57;;;;;;;;;;;;;;;;;;5023514;28;19914;-80
2023/02/15 16:32:23;;;;;;;;;;;;;;;;;;5005848;28;20359;-82
2023/02/15 16:34:48;;;;;;;;;;;;;;;;;;5007405;28;19941;-79
2023/02/15 16:37:13;;;;;;;;;;;;;;;;;;5019337;28;19919;-78
2023/02/15 16:39:38;;;;;;;;;;;;;;;;;;5002602;28;20016;-80
2023/02/15 16:42:04;;;;;;;;;;;;;;;;;;5006163;28;19921;-76
2023/02/15 16:44:32;;;;;;;;;;;;;;;;;;5026487;28;19964;-77
2023/02/15 16:46:57;;;;;;;;;;;;;;;;;;5006369;28;19917;-79
2023/02/15 16:49:23;;;;;;;;;;;;;;;;;;5010258;28;20017;-80
2023/02/15 16:51:48;;;;;;;;;;;;;;;;;;5008310;28;19948;-81
2023/02/15 16:54:13;;;;;;;;;;;;;;;;;;4997732;28;19976;-79
2023/02/15 16:56:44;;;;;;;;;;;;;;;;;;5011901;28;19914;-80
2023/02/15 16:59:09;;;;;;;;;;;;;;;;;;5005914;28;19914;-78
2023/02/15 17:01:34;;;;;;;;;;;;;;;;;;5009451;28;19922;-77
2023/02/15 17:03:59;;;;;;;;;;;;;;;;;;5008021;28;19920;-78
2023/02/15 17:06:25;;;;;;;;;;;;;;;;;;5009466;28;20008;-79
2023/02/15 17:08:50;;;;;;;;;;;;;;;;;;5026720;28;19913;-80
2023/02/15 17:11:16;;;;;;;;;;;;;;;;;;5005780;28;19917;-80
2023/02/15 17:13:41;;;;;;;;;;;;;;;;;;5022472;28;20066;-80
2023/02/15 17:16:06;;;;;;;;;;;;;;;;;;5029140;28;19914;-80
2023/02/15 17:18:31;;;;;;;;;;;;;;;;;;5026882;28;19921;-80
2023/02/15 17:20:56;;;;;;;;;;;;;;;;;;5008195;28;19944;-79
2023/02/15 17:23:21;;;;;;;;;;;;;;;;;;5023215;28;19917;-79
2023/02/15 17:25:46;;;;;;;;;;;;;;;;;;5026553;28;19922;-79
2023/02/15 17:28:12;;;;;;;;;;;;;;;;;;5011362;28;20376;-79
2023/02/15 17:30:38;;;;;;;;;;;;;;;;;;5009735;28;19992;-78
2023/02/15 17:33:03;;;;;;;;;;;;;;;;;;5007487;28;19976;-79
2023/02/15 17:35:28;;;;;;;;;;;;;;;;;;5025683;28;19914;-78
2023/02/15 17:37:53;;;;;;;;;;;;;;;;;;5006982;28;19914;-78
2023/02/15 17:40:19;;;;;;;;;;;;;;;;;;4996998;28;19979;-77
2023/02/15 17:42:44;;;;;;;;;;;;;;;;;;5013567;28;20000;-78
2023/02/15 17:45:09;;;;;;;;;;;;;;;;;;5022513;28;19917;-78
2023/02/15 17:47:34;;;;;;;;;;;;;;;;;;5006567;28;19922;-79
2023/02/15 17:49:59;;;;;;;;;;;;;;;;;;5010484;28;19918;-78
2023/02/15 17:52:24;;;;;;;;;;;;;;;;;;5008401;28;19921;-77